createdAt,value
2022-08-21T00:05:19.198Z,100.00
2022-08-21T00:08:21.452Z,100.00
2022-08-21T00:13:57.326Z,100.00
2022-08-21T00:19:25.998Z,100.00
2022-08-21T00:22:14.143Z,100.00
2022-08-21T00:30:35.775Z,100.00
2022-08-21T00:33:26.128Z,100.00
2022-08-21T00:36:14.975Z,100.00
2022-08-21T00:39:04.725Z,100.00
2022-08-21T00:41:56.420Z,100.00
2022-08-21T00:44:46.097Z,100.00
2022-08-21T00:47:34.529Z,100.00
2022-08-21T00:50:23.161Z,100.00
2022-08-21T00:53:14.242Z,100.00
2022-08-21T00:59:02.440Z,100.00
2022-08-21T01:04:38.154Z,100.00
2022-08-21T01:07:27.692Z,100.00
2022-08-21T01:10:24.044Z,100.00
2022-08-21T01:15:57.266Z,100.00
2022-08-21T01:18:46.580Z,100.00
2022-08-21T01:24:19.522Z,100.00
2022-08-21T01:27:08.540Z,100.00
2022-08-21T01:40:51.185Z,100.00
2022-08-21T01:46:26.685Z,100.00
2022-08-21T01:52:01.112Z,100.00
2022-08-21T01:57:30.972Z,100.00
2022-08-21T02:03:31.205Z,100.00
2022-08-21T02:08:58.931Z,100.00
2022-08-21T02:14:32.839Z,100.00
2022-08-21T02:20:08.543Z,100.00
2022-08-21T02:25:39.267Z,100.00
2022-08-21T02:31:16.599Z,100.00
2022-08-21T02:36:58.703Z,100.00
2022-08-21T02:39:46.676Z,100.00
2022-08-21T02:42:36.140Z,100.00
2022-08-21T02:45:26.763Z,100.00
2022-08-21T02:48:18.350Z,100.00
2022-08-21T02:53:56.109Z,100.00
2022-08-21T02:59:30.557Z,100.00
2022-08-21T03:02:19.965Z,100.00
2022-08-21T03:05:10.907Z,100.00
2022-08-21T03:07:59.387Z,100.00
2022-08-21T03:13:37.542Z,100.00
2022-08-21T03:19:15.065Z,100.00
2022-08-21T03:24:50.709Z,100.00
2022-08-21T03:27:40.859Z,100.00
2022-08-21T03:33:15.218Z,100.00
2022-08-21T03:36:05.568Z,100.00
2022-08-21T03:41:43.781Z,100.00
2022-08-21T03:47:13.007Z,100.00
2022-08-21T03:52:45.633Z,100.00
2022-08-21T03:58:22.289Z,100.00
2022-08-21T04:03:51.277Z,100.00
2022-08-21T04:06:39.504Z,100.00
2022-08-21T04:12:16.010Z,100.00
2022-08-21T04:15:05.287Z,100.00
2022-08-21T04:17:55.670Z,100.00
2022-08-21T04:23:30.518Z,100.00
2022-08-21T04:29:23.031Z,100.00
2022-08-21T04:34:55.144Z,100.00
2022-08-21T04:37:44.859Z,100.00
2022-08-21T04:43:16.559Z,100.00
2022-08-21T04:48:50.420Z,100.00
2022-08-21T04:51:39.658Z,100.00
2022-08-21T04:57:14.171Z,100.00
2022-08-21T05:05:41.170Z,100.00
2022-08-21T05:11:45.039Z,100.00
2022-08-21T05:14:33.929Z,100.00
2022-08-21T05:17:25.601Z,100.00
2022-08-21T05:25:44.088Z,99.46
2022-08-21T05:31:19.606Z,82.63
2022-08-21T05:34:09.003Z,81.38
2022-08-21T05:36:58.094Z,81.88
2022-08-21T05:40:21.323Z,83.62
2022-08-21T05:45:42.176Z,90.00
2022-08-21T05:48:17.159Z,91.59
2022-08-21T05:53:49.024Z,92.97
2022-08-21T05:59:20.959Z,93.66
2022-08-21T06:05:04.173Z,95.25
2022-08-21T06:10:34.433Z,93.65
2022-08-21T06:16:15.777Z,89.31
2022-08-21T06:21:58.975Z,89.93
2022-08-21T06:27:29.018Z,88.07
2022-08-21T06:33:07.333Z,86.05
2022-08-21T06:38:38.376Z,86.14
2022-08-21T06:44:13.099Z,81.86
2022-08-21T06:47:01.907Z,81.21
2022-08-21T06:52:37.203Z,82.48
2022-08-21T06:55:29.311Z,79.93
2022-08-21T07:01:04.116Z,76.39
2022-08-21T07:06:42.978Z,73.40
2022-08-21T07:09:31.486Z,70.76
2022-08-21T07:15:06.429Z,67.40
2022-08-21T07:20:56.183Z,65.63
2022-08-21T07:27:09.920Z,65.84
2022-08-21T07:32:45.006Z,66.07
2022-08-21T07:38:20.032Z,65.41
2022-08-21T07:44:00.621Z,64.91
2022-08-21T07:49:39.394Z,66.31
2022-08-21T07:55:13.376Z,62.92
2022-08-21T07:58:02.137Z,65.96
2022-08-21T08:03:39.637Z,72.88
2022-08-21T08:06:28.013Z,71.74
2022-08-21T08:12:00.303Z,73.80
2022-08-21T08:17:35.941Z,78.81
2022-08-21T08:25:53.283Z,78.90
2022-08-21T08:28:47.877Z,75.23
2022-08-21T08:34:25.835Z,72.37
2022-08-21T08:39:56.202Z,68.82
2022-08-21T08:45:33.839Z,72.38
2022-08-21T08:51:19.139Z,75.40
2022-08-21T08:56:56.750Z,73.99
2022-08-21T08:59:48.815Z,75.76
2022-08-21T09:02:37.535Z,73.69
2022-08-21T09:08:26.624Z,73.58
2022-08-21T09:14:11.193Z,74.91
2022-08-21T09:17:02.918Z,74.17
2022-08-21T09:19:58.356Z,74.90
2022-08-21T09:25:44.054Z,75.19
2022-08-21T09:31:24.278Z,76.25
2022-08-21T09:34:14.617Z,74.52
2022-08-21T09:39:48.957Z,73.57
2022-08-21T09:42:37.679Z,72.40
2022-08-21T09:48:17.439Z,71.96
2022-08-21T09:51:11.586Z,70.76
2022-08-21T09:57:16.626Z,69.43
2022-08-21T10:02:56.688Z,72.18
2022-08-21T10:08:42.996Z,71.17
2022-08-21T10:17:03.865Z,69.36
2022-08-21T10:31:06.918Z,67.71
2022-08-21T10:36:49.379Z,66.74
2022-08-21T10:42:35.950Z,67.33
2022-08-21T10:51:17.387Z,64.49
2022-08-21T10:56:58.878Z,65.66
2022-08-21T11:02:39.867Z,62.22
2022-08-21T11:08:20.920Z,61.28
2022-08-21T11:13:55.587Z,62.10
2022-08-21T11:19:32.472Z,61.27
2022-08-21T11:33:53.064Z,59.57
2022-08-21T11:39:38.246Z,58.99
2022-08-21T11:45:49.594Z,55.37
2022-08-21T11:51:20.281Z,53.91
2022-08-21T11:54:12.910Z,51.26
2022-08-21T11:57:06.377Z,52.31
2022-08-21T12:02:47.126Z,53.48
2022-08-21T12:11:30.730Z,55.97
2022-08-21T12:17:12.527Z,55.98
2022-08-21T12:25:42.412Z,52.44
2022-08-21T12:31:25.797Z,54.00
2022-08-21T12:36:58.228Z,51.54
2022-08-21T12:42:38.364Z,48.93
2022-08-21T12:48:20.134Z,49.92
2022-08-21T12:54:02.121Z,49.73
2022-08-21T12:56:58.095Z,49.15
2022-08-21T12:59:54.648Z,49.15
2022-08-21T13:05:31.332Z,48.59
2022-08-21T13:08:20.400Z,49.13
2022-08-21T13:11:14.935Z,49.13
2022-08-21T13:16:48.887Z,48.81
2022-08-21T13:22:34.267Z,46.79
2022-08-21T13:28:04.102Z,44.12
2022-08-21T13:30:53.952Z,44.70
2022-08-21T13:33:43.218Z,45.38
2022-08-21T13:39:21.037Z,42.97
2022-08-21T13:44:59.709Z,44.32
2022-08-21T13:50:28.797Z,44.12
2022-08-21T13:56:13.794Z,44.00
2022-08-21T14:01:51.405Z,45.12
2022-08-21T14:04:43.451Z,45.23
2022-08-21T14:10:26.473Z,44.73
2022-08-21T14:13:38.202Z,45.18
2022-08-21T14:19:21.230Z,46.00
2022-08-21T14:25:29.776Z,44.38
2022-08-21T14:31:27.342Z,43.39
2022-08-21T14:37:05.462Z,41.61
2022-08-21T14:39:54.414Z,41.38
2022-08-21T14:42:44.663Z,41.62
2022-08-21T14:48:38.239Z,41.42
2022-08-21T14:51:27.742Z,41.53
2022-08-21T14:57:07.550Z,39.03
2022-08-21T15:02:41.528Z,39.22
2022-08-21T15:08:17.434Z,39.09
2022-08-21T15:14:15.641Z,37.77
2022-08-21T15:19:50.024Z,37.80
2022-08-21T15:22:39.263Z,38.30
2022-08-21T15:28:09.908Z,39.50
2022-08-21T15:33:44.967Z,39.22
2022-08-21T15:36:34.316Z,37.93
2022-08-21T15:42:11.144Z,38.21
2022-08-21T15:45:00.643Z,35.25
2022-08-21T15:50:47.787Z,34.66
2022-08-21T15:56:28.517Z,34.82
2022-08-21T16:02:11.242Z,35.44
2022-08-21T16:07:47.869Z,35.38
2022-08-21T16:10:38.691Z,35.87
2022-08-21T16:24:28.338Z,35.77
2022-08-21T16:30:08.006Z,37.31
2022-08-21T16:32:57.662Z,37.31
2022-08-21T16:36:04.977Z,37.03
2022-08-21T16:38:55.489Z,36.52
2022-08-21T16:44:31.187Z,36.69
2022-08-21T16:50:05.637Z,37.09
2022-08-21T16:55:41.649Z,36.65
2022-08-21T16:58:32.195Z,36.44
2022-08-21T17:04:11.815Z,35.59
2022-08-21T17:09:43.953Z,35.35
2022-08-21T17:15:21.520Z,38.62
2022-08-21T17:18:12.999Z,39.04
2022-08-21T17:23:53.650Z,39.88
2022-08-21T17:29:34.278Z,39.53
2022-08-21T17:32:24.020Z,40.23
2022-08-21T17:35:13.218Z,40.84
2022-08-21T17:38:01.934Z,40.49
2022-08-21T17:43:38.007Z,39.84
2022-08-21T17:52:10.923Z,41.94
2022-08-21T17:55:02.584Z,43.13
2022-08-21T18:00:38.547Z,44.75
2022-08-21T18:03:26.923Z,45.90
2022-08-21T18:06:17.892Z,46.36
2022-08-21T18:11:49.154Z,47.13
2022-08-21T18:17:26.972Z,47.82
2022-08-21T18:28:51.378Z,49.34
2022-08-21T18:34:32.205Z,49.03
2022-08-21T18:37:20.884Z,49.39
2022-08-21T18:42:57.979Z,49.46
2022-08-21T18:48:26.892Z,49.58
2022-08-21T18:54:05.145Z,49.98
2022-08-21T18:56:55.375Z,49.85
2022-08-21T19:02:54.636Z,50.07
2022-08-21T19:09:08.940Z,50.65
2022-08-21T19:15:05.022Z,50.51
2022-08-21T19:24:26.341Z,51.88
2022-08-21T19:27:15.233Z,52.78
2022-08-21T19:30:05.168Z,52.39
2022-08-21T19:35:39.499Z,53.56
2022-08-21T19:41:19.013Z,52.76
2022-08-21T19:44:09.754Z,53.19
2022-08-21T19:52:38.074Z,55.32
2022-08-21T19:55:29.980Z,55.83
2022-08-21T19:58:29.208Z,56.24
2022-08-21T20:04:04.428Z,56.84
2022-08-21T20:09:42.757Z,57.25
2022-08-21T20:15:21.923Z,58.12
2022-08-21T20:21:13.293Z,56.67
2022-08-21T20:24:01.887Z,57.03
2022-08-21T20:29:46.429Z,58.76
2022-08-21T20:35:17.464Z,60.81
2022-08-21T20:38:06.415Z,60.33
2022-08-21T20:43:44.440Z,60.76
2022-08-21T20:46:33.627Z,61.44
2022-08-21T20:52:15.302Z,61.14
2022-08-21T20:57:59.081Z,61.30
2022-08-21T21:06:21.227Z,62.93
2022-08-21T21:12:16.024Z,64.04
2022-08-21T21:18:02.142Z,64.21
2022-08-21T21:20:53.475Z,64.99
2022-08-21T21:26:37.214Z,66.04
2022-08-21T22:04:58.267Z,69.18
2022-08-21T22:46:09.651Z,73.00
2022-08-21T22:51:51.619Z,72.42
2022-08-21T22:54:42.835Z,71.63
2022-08-21T22:57:34.658Z,71.92
2022-08-21T23:03:30.687Z,74.00
2022-08-21T23:06:38.158Z,73.76
2022-08-21T23:12:38.108Z,75.76
2022-08-21T23:18:21.781Z,77.94
2022-08-21T23:26:54.317Z,80.98
2022-08-21T23:32:46.981Z,82.07
2022-08-21T23:38:27.082Z,82.51
2022-08-21T23:47:15.681Z,84.06
2022-08-21T23:52:59.096Z,84.28
2022-08-21T23:58:40.841Z,85.28
